Time;durP1;ratioP1;P1;durP2;ratioP2;P2;SDS_P1;SDS_P2;PMS_P1;PMS_P2;Temp;Humidity;BMP_temperature;BMP_pressure;BME280_temperature;BME280_humidity;BME280_pressure;Samples;Min_cycle;Max_cycle;Signal;HPM_P1;HPM_P2
2023/02/01 00:02:19;;;;;;;;;;;;;;;3.88;77.54;98352.56;4921096;29;19935;-59
2023/02/01 00:04:47;;;;;;;;;;;;;;;3.87;77.80;98361.72;4916517;29;19930;-58
2023/02/01 00:07:16;;;;;;;;;;;;;;;3.85;78.59;98366.53;4923211;29;20458;-57
2023/02/01 00:09:45;;;;;;;;;;;;;;;3.85;78.75;98361.16;4919917;29;19957;-57
2023/02/01 00:15:07;;;;;;;;;;;;;;;3.86;79.45;98352.84;4910239;29;20319;-57
2023/02/01 00:17:36;;;;;;;;;;;;;;;3.83;79.28;98363.28;4912092;29;19948;-55
2023/02/01 00:20:04;;;;;;;;;;;;;;;3.86;78.85;98349.34;4899779;29;19949;-54
2023/02/01 00:22:32;;;;;;;;;;;;;;;3.95;78.46;98361.25;4914021;29;19956;-57
2023/02/01 00:25:01;;;;;;;;;;;;;;;3.88;79.14;98361.44;4916421;29;19958;-57
2023/02/01 00:27:30;;;;;;;;;;;;;;;3.85;79.02;98355.78;4911443;29;19992;-57
2023/02/01 00:29:58;;;;;;;;;;;;;;;3.82;79.35;98348.22;4935269;29;20004;-57
2023/02/01 00:32:26;;;;;;;;;;;;;;;3.84;79.06;98354.19;4932790;29;19942;-58
2023/02/01 00:34:55;;;;;;;;;;;;;;;3.87;78.75;98349.09;4919941;29;19972;-57
2023/02/01 00:37:23;;;;;;;;;;;;;;;3.90;78.27;98342.41;4906461;29;19942;-58
2023/02/01 00:39:54;;;;;;;;;;;;;;;3.90;78.40;98348.59;4918913;29;19937;-57
2023/02/01 00:42:24;;;;;;;;;;;;;;;3.91;78.03;98333.25;4899402;29;19984;-57
2023/02/01 00:44:52;;;;;;;;;;;;;;;3.85;78.56;98342.34;4922155;29;19961;-55
2023/02/01 00:47:20;;;;;;;;;;;;;;;3.93;78.22;98347.25;4936467;29;20322;-58
2023/02/01 00:49:50;;;;;;;;;;;;;;;3.95;77.99;98342.44;4916543;29;20407;-57
2023/02/01 00:52:21;;;;;;;;;;;;;;;3.97;78.14;98340.28;4921366;29;19938;-56
2023/02/01 00:54:50;;;;;;;;;;;;;;;3.96;78.04;98337.88;4899293;29;20478;-57
2023/02/01 00:57:18;;;;;;;;;;;;;;;3.93;77.61;98347.25;4942481;29;19937;-57
2023/02/01 00:59:48;;;;;;;;;;;;;;;3.96;77.51;98338.69;4915891;29;19942;-58
2023/02/01 01:02:16;;;;;;;;;;;;;;;3.95;77.47;98331.69;4922586;29;19948;-58
2023/02/01 01:04:46;;;;;;;;;;;;;;;3.93;77.65;98331.13;4914870;29;20052;-58
2023/02/01 01:07:14;;;;;;;;;;;;;;;3.90;77.65;98327.06;4933610;29;19946;-58
2023/02/01 01:09:42;;;;;;;;;;;;;;;3.94;77.80;98330.88;4917167;29;19946;-57
2023/02/01 01:12:11;;;;;;;;;;;;;;;3.90;78.29;98342.41;4931720;29;19946;-57
2023/02/01 01:14:39;;;;;;;;;;;;;;;3.93;77.86;98331.13;4921187;29;19930;-57
2023/02/01 01:17:08;;;;;;;;;;;;;;;3.92;77.91;98332.19;4936981;29;20331;-57
2023/02/01 01:19:37;;;;;;;;;;;;;;;3.99;77.63;98334.66;4903603;29;20056;-57
2023/02/01 01:22:05;;;;;;;;;;;;;;;4.00;77.76;98326.34;4925250;29;20371;-57
2023/02/01 01:24:34;;;;;;;;;;;;;;;3.98;78.00;98333.03;4924892;29;19935;-58
2023/02/01 01:27:02;;;;;;;;;;;;;;;3.93;78.49;98328.44;4922062;29;19934;-57
2023/02/01 01:29:30;;;;;;;;;;;;;;;3.95;78.39;98329.00;4912876;29;19989;-57
2023/02/01 01:32:01;;;;;;;;;;;;;;;3.93;78.67;98326.53;4926994;29;19961;-57
2023/02/01 01:34:31;;;;;;;;;;;;;;;3.90;79.37;98331.66;4929725;29;19949;-57
2023/02/01 01:36:59;;;;;;;;;;;;;;;3.84;79.68;98338.06;4898249;29;19942;-57
2023/02/01 01:39:27;;;;;;;;;;;;;;;3.92;79.27;98335.69;4928982;29;19953;-59
2023/02/01 01:41:57;;;;;;;;;;;;;;;3.88;79.55;98331.06;4932848;29;19931;-57
2023/02/01 01:44:45;;;;;;;;;;;;;;;3.86;79.88;98325.16;4897440;29;20005;-56
2023/02/01 01:47:16;;;;;;;;;;;;;;;3.92;79.38;98324.13;4925734;29;20053;-58
2023/02/01 01:50:09;;;;;;;;;;;;;;;3.88;79.37;98317.63;4898528;29;19927;-57
2023/02/01 01:52:49;;;;;;;;;;;;;;;3.90;79.11;98326.28;4920596;29;19947;-57
2023/02/01 01:55:18;;;;;;;;;;;;;;;3.85;79.25;98318.16;4902085;29;19942;-57
2023/02/01 01:57:48;;;;;;;;;;;;;;;3.86;79.44;98314.41;4924701;29;19941;-58
2023/02/01 02:00:17;;;;;;;;;;;;;;;3.84;79.15;98314.69;4935459;29;19981;-59
2023/02/01 02:02:47;;;;;;;;;;;;;;;3.88;79.49;98301.50;4910086;29;19997;-58
2023/02/01 02:05:15;;;;;;;;;;;;;;;3.85;78.95;98312.78;4932210;29;20010;-58
2023/02/01 02:07:44;;;;;;;;;;;;;;;3.89;78.87;98316.59;4931391;29;20474;-57
2023/02/01 02:10:14;;;;;;;;;;;;;;;3.88;79.07;98306.88;4926814;29;19972;-58
2023/02/01 02:12:43;;;;;;;;;;;;;;;3.86;79.08;98311.72;4908323;29;19946;-57
2023/02/01 02:15:12;;;;;;;;;;;;;;;3.86;79.42;98312.53;4898136;29;19942;-57
2023/02/01 02:17:41;;;;;;;;;;;;;;;3.96;78.53;98309.09;4901396;29;20018;-58
2023/02/01 02:20:15;;;;;;;;;;;;;;;3.93;78.66;98302.34;4904957;29;19965;-57
2023/02/01 02:23:06;;;;;;;;;;;;;;;3.90;78.79;98304.78;4914209;29;20312;-57
2023/02/01 02:25:44;;;;;;;;;;;;;;;3.90;78.84;98304.78;4929849;29;20644;-57
2023/02/01 02:28:14;;;;;;;;;;;;;;;3.93;78.60;98296.97;4907354;29;19938;-57
2023/02/01 02:31:03;;;;;;;;;;;;;;;3.97;78.35;98294.59;4902870;29;19941;-57
2023/02/01 02:33:49;;;;;;;;;;;;;;;3.94;78.41;98278.97;4902994;29;19938;-58
2023/02/01 02:36:20;;;;;;;;;;;;;;;3.89;78.23;98292.41;4898200;29;19946;-58
2023/02/01 02:38:50;;;;;;;;;;;;;;;3.89;78.29;98281.66;4885749;29;20319;-58
2023/02/01 02:55:40;;;;;;;;;;;;;;;3.77;80.02;98289.06;4914638;29;19938;-58
2023/02/01 03:06:51;;;;;;;;;;;;;;;3.81;80.14;98272.16;4932761;29;19935;-57
2023/02/01 03:09:22;;;;;;;;;;;;;;;3.80;80.28;98275.13;4917667;29;20415;-56
2023/02/01 03:14:36;;;;;;;;;;;;;;;3.86;79.71;98258.78;4942875;29;19973;-57
2023/02/01 03:17:05;;;;;;;;;;;;;;;3.86;79.34;98263.34;4936699;29;19948;-58
2023/02/01 03:19:34;;;;;;;;;;;;;;;3.85;80.00;98261.72;4926524;29;19989;-57
2023/02/01 03:22:03;;;;;;;;;;;;;;;3.83;80.03;98247.72;4930053;29;19962;-57
2023/02/01 03:24:34;;;;;;;;;;;;;;;3.75;80.16;98240.16;4906386;29;20122;-58
2023/02/01 03:27:04;;;;;;;;;;;;;;;3.74;80.37;98246.59;4932544;29;19964;-58
2023/02/01 03:29:33;;;;;;;;;;;;;;;3.72;80.53;98256.78;4893308;29;20059;-58
2023/02/01 03:32:01;;;;;;;;;;;;;;;3.78;80.12;98261.97;4900569;29;19941;-57
2023/02/01 03:34:31;;;;;;;;;;;;;;;3.77;80.25;98267.56;4923361;29;20367;-58
2023/02/01 03:37:01;;;;;;;;;;;;;;;3.70;80.19;98257.06;4925481;29;19942;-57
2023/02/01 03:39:30;;;;;;;;;;;;;;;3.72;80.49;98244.16;4911951;29;19948;-58
2023/02/01 03:42:01;;;;;;;;;;;;;;;3.73;80.57;98235.06;4909607;29;19949;-57
2023/02/01 03:44:30;;;;;;;;;;;;;;;3.76;80.76;98247.16;4915400;29;19964;-57
2023/02/01 03:46:59;;;;;;;;;;;;;;;3.80;79.89;98245.56;4893440;29;19960;-56
2023/02/01 03:52:22;;;;;;;;;;;;;;;3.76;80.46;98245.25;4914400;29;19937;-57
2023/02/01 03:54:51;;;;;;;;;;;;;;;3.83;80.12;98236.97;4918998;29;19949;-56
2023/02/01 03:57:21;;;;;;;;;;;;;;;3.86;79.79;98241.84;4920934;29;20392;-57
2023/02/01 03:59:49;;;;;;;;;;;;;;;3.85;79.97;98238.34;4912299;29;19949;-55
2023/02/01 04:02:17;;;;;;;;;;;;;;;3.82;79.57;98232.66;4907120;29;20342;-58
2023/02/01 04:04:46;;;;;;;;;;;;;;;3.89;79.64;98227.91;4902546;29;19942;-55
2023/02/01 04:07:18;;;;;;;;;;;;;;;3.84;79.57;98225.16;4903233;29;20112;-57
2023/02/01 04:09:46;;;;;;;;;;;;;;;3.76;79.62;98226.44;4917931;29;19952;-56
2023/02/01 04:12:14;;;;;;;;;;;;;;;3.85;79.75;98221.41;4923347;29;19961;-57
2023/02/01 04:14:43;;;;;;;;;;;;;;;3.84;79.79;98219.78;4908790;29;19927;-57
2023/02/01 04:17:11;;;;;;;;;;;;;;;3.86;79.77;98207.69;4926047;29;19946;-56
2023/02/01 04:19:39;;;;;;;;;;;;;;;3.90;79.91;98211.50;4918863;29;19938;-57
2023/02/01 04:22:07;;;;;;;;;;;;;;;3.90;79.16;98218.75;4923378;29;19927;-57
2023/02/01 04:24:37;;;;;;;;;;;;;;;3.90;79.71;98218.75;4928165;29;19958;-57
2023/02/01 04:27:06;;;;;;;;;;;;;;;3.89;79.04;98225.19;4918797;29;20379;-57
2023/02/01 04:29:35;;;;;;;;;;;;;;;3.91;79.13;98231.94;4919728;29;19984;-58
2023/02/01 04:32:05;;;;;;;;;;;;;;;3.88;79.38;98224.38;4915050;29;19938;-57
2023/02/01 04:34:33;;;;;;;;;;;;;;;3.88;79.10;98221.69;4918746;29;19957;-58
2023/02/01 04:37:02;;;;;;;;;;;;;;;3.87;79.03;98220.06;4908967;29;19941;-58
2023/02/01 04:39:30;;;;;;;;;;;;;;;3.88;79.76;98212.81;4920364;29;19948;-57
2023/02/01 04:41:58;;;;;;;;;;;;;;;3.82;80.10;98216.53;4929946;29;19941;-57
2023/02/01 04:44:27;;;;;;;;;;;;;;;3.84;80.40;98214.44;4915737;29;19969;-57
2023/02/01 04:46:55;;;;;;;;;;;;;;;3.83;80.77;98218.97;4934270;29;20387;-57
2023/02/01 04:49:48;;;;;;;;;;;;;;;3.77;80.93;98222.69;4918206;29;20248;-56
2023/02/01 04:52:19;;;;;;;;;;;;;;;3.72;81.11;98211.91;4921026;29;19935;-57
2023/02/01 04:54:47;;;;;;;;;;;;;;;3.74;81.37;98208.97;4907278;29;19942;-56
2023/02/01 04:57:15;;;;;;;;;;;;;;;3.76;80.67;98217.59;4918424;29;19941;-56
2023/02/01 05:02:35;;;;;;;;;;;;;;;3.68;81.16;98214.31;4922567;29;19941;-56
2023/02/01 05:05:03;;;;;;;;;;;;;;;3.73;81.22;98215.41;4920469;29;20411;-57
2023/02/01 05:07:33;;;;;;;;;;;;;;;3.78;81.19;98210.91;4943654;29;19954;-55
2023/02/01 05:10:00;;;;;;;;;;;;;;;3.70;81.64;98214.06;4932473;29;19952;-56
2023/02/01 05:15:13;;;;;;;;;;;;;;;3.67;81.20;98215.41;4912549;29;19968;-56
2023/02/01 05:17:41;;;;;;;;;;;;;;;3.66;81.63;98210.25;4921929;29;20422;-56
2023/02/01 05:20:10;;;;;;;;;;;;;;;3.75;81.26;98207.91;4923260;29;19942;-56
2023/02/01 05:22:40;;;;;;;;;;;;;;;3.68;82.15;98219.69;4919689;29;19965;-56
2023/02/01 05:25:08;;;;;;;;;;;;;;;3.63;82.48;98225.03;4917559;29;20363;-55
2023/02/01 05:27:36;;;;;;;;;;;;;;;3.71;81.84;98204.91;4925975;29;19961;-56
2023/02/01 05:30:07;;;;;;;;;;;;;;;3.60;82.56;98214.00;4898740;29;20474;-56
2023/02/01 05:32:35;;;;;;;;;;;;;;;3.62;82.83;98217.22;4925504;29;19941;-56
2023/02/01 05:35:03;;;;;;;;;;;;;;;3.52;83.45;98215.28;4922616;29;20060;-56
2023/02/01 05:37:31;;;;;;;;;;;;;;;3.47;83.55;98209.88;4922337;29;20314;-55
2023/02/01 05:40:01;;;;;;;;;;;;;;;3.55;83.66;98222.00;4912103;29;19938;-56
2023/02/01 05:42:29;;;;;;;;;;;;;;;3.52;83.60;98211.81;4920522;29;19965;-55
2023/02/01 05:44:57;;;;;;;;;;;;;;;3.53;83.96;98232.22;4916195;29;19935;-55
2023/02/01 05:47:25;;;;;;;;;;;;;;;3.57;83.63;98231.44;4924170;29;20040;-56
2023/02/01 05:49:53;;;;;;;;;;;;;;;3.50;84.11;98230.84;4903921;29;19946;-56
2023/02/01 05:52:21;;;;;;;;;;;;;;;3.53;83.71;98235.72;4907008;29;19944;-56
2023/02/01 05:54:49;;;;;;;;;;;;;;;3.49;83.73;98213.09;4910526;29;19942;-57
2023/02/01 05:57:18;;;;;;;;;;;;;;;3.34;84.36;98218.38;4932013;29;19984;-56
2023/02/01 05:59:48;;;;;;;;;;;;;;;3.30;84.03;98209.19;4908989;29;20014;-56
2023/02/01 06:02:16;;;;;;;;;;;;;;;3.44;83.58;98217.63;4906689;29;19941;-56
2023/02/01 06:04:45;;;;;;;;;;;;;;;3.40;82.79;98220.00;4908043;29;19965;-56
2023/02/01 06:07:13;;;;;;;;;;;;;;;3.38;83.46;98217.59;4920650;29;20387;-57
2023/02/01 06:09:43;;;;;;;;;;;;;;;3.34;83.27;98218.38;4902568;29;19931;-56
2023/02/01 06:12:11;;;;;;;;;;;;;;;3.30;83.55;98187.72;4915788;29;19934;-54
2023/02/01 06:14:40;;;;;;;;;;;;;;;3.27;82.48;98185.56;4915276;29;19957;-56
2023/02/01 06:17:08;;;;;;;;;;;;;;;3.26;82.67;98192.81;4919688;29;19938;-55
2023/02/01 06:19:36;;;;;;;;;;;;;;;3.22;83.42;98191.69;4911448;29;19970;-55
2023/02/01 06:22:06;;;;;;;;;;;;;;;3.27;83.28;98188.25;4914717;29;20044;-56
2023/02/01 06:24:34;;;;;;;;;;;;;;;3.31;82.66;98189.34;4912476;29;19968;-56
2023/02/01 06:27:02;;;;;;;;;;;;;;;3.28;82.60;98192.53;4911019;29;19968;-56
2023/02/01 06:29:30;;;;;;;;;;;;;;;3.33;82.60;98195.25;4923513;29;19964;-58
2023/02/01 06:32:00;;;;;;;;;;;;;;;3.30;83.37;98193.91;4927626;29;19939;-56
2023/02/01 06:34:30;;;;;;;;;;;;;;;3.35;83.16;98191.25;4910855;29;19965;-55
2023/02/01 06:36:59;;;;;;;;;;;;;;;3.41;82.55;98192.91;4907839;29;19981;-59
2023/02/01 06:39:28;;;;;;;;;;;;;;;3.41;82.58;98195.59;4908987;29;19927;-55
2023/02/01 06:41:56;;;;;;;;;;;;;;;3.36;82.73;98192.88;4911121;29;20012;-55
2023/02/01 06:44:25;;;;;;;;;;;;;;;3.28;83.00;98195.22;4909404;29;19992;-56
2023/02/01 06:46:54;;;;;;;;;;;;;;;3.47;82.13;98195.66;4926727;29;19949;-56
2023/02/01 06:52:18;;;;;;;;;;;;;;;3.35;82.83;98183.19;4911235;29;19968;-56
2023/02/01 06:54:46;;;;;;;;;;;;;;;3.36;82.46;98186.72;4908879;29;19948;-55
2023/02/01 06:57:15;;;;;;;;;;;;;;;3.40;82.46;98185.09;4917139;29;19960;-56
2023/02/01 06:59:46;;;;;;;;;;;;;;;3.38;82.44;98189.94;4914772;29;19945;-56
2023/02/01 07:02:14;;;;;;;;;;;;;;;3.53;82.33;98192.72;4916516;29;19937;-56
2023/02/01 07:04:44;;;;;;;;;;;;;;;3.51;82.17;98197.53;4917777;29;19961;-57
2023/02/01 07:07:13;;;;;;;;;;;;;;;3.49;82.39;98199.69;4911000;29;19953;-56
2023/02/01 07:09:43;;;;;;;;;;;;;;;3.46;82.08;98196.69;4914241;29;19965;-56
2023/02/01 07:12:11;;;;;;;;;;;;;;;3.44;81.73;98198.84;4932802;29;20002;-57
2023/02/01 07:14:39;;;;;;;;;;;;;;;3.50;82.06;98203.16;4909767;29;20435;-56
2023/02/01 07:17:07;;;;;;;;;;;;;;;3.45;81.83;98200.44;4904741;29;19938;-57
2023/02/01 07:19:35;;;;;;;;;;;;;;;3.39;82.17;98197.72;4909661;29;20412;-56
2023/02/01 07:22:06;;;;;;;;;;;;;;;3.44;81.94;98201.53;4892414;29;19934;-56
2023/02/01 07:24:35;;;;;;;;;;;;;;;3.53;81.56;98197.28;4914230;29;19942;-57
2023/02/01 07:27:04;;;;;;;;;;;;;;;3.52;82.03;98201.06;4910091;29;19982;-57
2023/02/01 07:29:32;;;;;;;;;;;;;;;3.56;81.59;98196.75;4910742;29;19962;-56
2023/02/01 07:32:02;;;;;;;;;;;;;;;3.60;81.63;98204.06;4919158;29;19937;-57
2023/02/01 07:34:32;;;;;;;;;;;;;;;3.60;82.00;98212.09;4899109;29;20284;-57
2023/02/01 07:37:02;;;;;;;;;;;;;;;3.61;81.33;98205.66;4902632;29;19948;-56
2023/02/01 07:39:32;;;;;;;;;;;;;;;3.64;81.26;98204.34;4908739;29;19938;-56
2023/02/01 07:42:01;;;;;;;;;;;;;;;3.62;81.49;98207.31;4908547;29;20260;-56
2023/02/01 07:44:55;;;;;;;;;;;;;;;3.64;81.48;98207.84;4919318;29;19957;-56
2023/02/01 07:47:23;;;;;;;;;;;;;;;3.62;82.28;98196.56;4907218;29;19949;-57
2023/02/01 07:49:52;;;;;;;;;;;;;;;3.65;81.55;98196.03;4906409;29;19975;-56
2023/02/01 07:52:22;;;;;;;;;;;;;;;3.72;81.51;98189.59;4920457;29;19938;-56
2023/02/01 07:54:51;;;;;;;;;;;;;;;3.81;81.65;98201.50;4912070;29;20103;-56
2023/02/01 07:57:20;;;;;;;;;;;;;;;3.80;81.39;98197.19;4911867;29;19938;-56
2023/02/01 08:02:54;;;;;;;;;;;;;;;3.88;80.94;98189.44;4891057;29;19973;-57
2023/02/01 08:05:22;;;;;;;;;;;;;;;3.89;80.36;98184.88;4884757;29;19938;-55
2023/02/01 08:07:50;;;;;;;;;;;;;;;3.89;80.31;98172.25;4891923;29;20327;-57
2023/02/01 08:10:20;;;;;;;;;;;;;;;3.91;79.81;98167.41;4890637;29;19961;-57
2023/02/01 08:12:51;;;;;;;;;;;;;;;3.96;79.44;98181.97;4891720;29;19953;-56
2023/02/01 08:15:19;;;;;;;;;;;;;;;3.87;79.41;98192.38;4903957;29;19942;-56
2023/02/01 08:17:48;;;;;;;;;;;;;;;3.89;79.64;98179.50;4885121;29;20411;-57
2023/02/01 08:20:16;;;;;;;;;;;;;;;3.92;78.88;98195.09;4890725;29;19932;-56
2023/02/01 08:22:44;;;;;;;;;;;;;;;3.92;78.90;98182.47;4872171;29;19969;-56
2023/02/01 08:25:12;;;;;;;;;;;;;;;4.03;79.46;98175.25;4886697;29;19942;-57
2023/02/01 08:27:44;;;;;;;;;;;;;;;4.12;79.10;98183.66;4883486;29;19985;-56
2023/02/01 08:30:15;;;;;;;;;;;;;;;4.19;78.38;98182.31;4889571;29;20367;-56
2023/02/01 08:32:43;;;;;;;;;;;;;;;4.24;78.23;98197.66;4886056;29;19965;-56
2023/02/01 08:35:11;;;;;;;;;;;;;;;4.24;78.04;98202.25;4909580;29;19937;-56
2023/02/01 08:37:42;;;;;;;;;;;;;;;4.29;78.21;98218.41;4911972;29;19945;-58
2023/02/01 08:40:11;;;;;;;;;;;;;;;4.24;77.81;98223.75;4908025;29;20475;-57
2023/02/01 08:45:36;;;;;;;;;;;;;;;4.26;77.46;98226.97;4917252;29;19994;-56
2023/02/01 08:48:06;;;;;;;;;;;;;;;4.28;76.77;98222.97;4918792;29;19949;-57
2023/02/01 08:50:37;;;;;;;;;;;;;;;4.32;77.18;98226.75;4892437;29;19957;-56
2023/02/01 08:53:09;;;;;;;;;;;;;;;4.34;77.01;98224.59;4896578;29;19942;-56
2023/02/01 08:55:40;;;;;;;;;;;;;;;4.35;76.45;98236.16;4923293;29;19965;-57
2023/02/01 08:58:09;;;;;;;;;;;;;;;4.46;75.75;98219.00;4900197;29;19945;-56
2023/02/01 09:00:38;;;;;;;;;;;;;;;4.44;76.40;98218.47;4895239;29;19936;-56
2023/02/01 09:03:09;;;;;;;;;;;;;;;4.44;76.23;98216.56;4925307;29;20058;-57
2023/02/01 09:05:36;;;;;;;;;;;;;;;4.46;76.03;98205.53;4897834;29;19952;-57
2023/02/01 09:08:18;;;;;;;;;;;;;;;4.46;76.30;98217.09;4928950;29;19937;-56
2023/02/01 09:10:46;;;;;;;;;;;;;;;4.51;75.95;98227.09;4895615;29;19961;-56
2023/02/01 09:13:14;;;;;;;;;;;;;;;4.44;76.91;98223.84;4887406;29;20018;-57
2023/02/01 09:15:44;;;;;;;;;;;;;;;4.49;76.68;98221.16;4896209;29;19986;-57
2023/02/01 09:18:13;;;;;;;;;;;;;;;4.43;76.96;98223.03;4894818;29;20403;-56
2023/02/01 09:20:42;;;;;;;;;;;;;;;4.38;77.98;98239.16;4908731;29;19941;-57
2023/02/01 09:23:10;;;;;;;;;;;;;;;4.39;77.74;98251.53;4909514;29;19949;-57
2023/02/01 09:25:39;;;;;;;;;;;;;;;4.42;77.27;98258.25;4890472;29;19936;-56
2023/02/01 09:28:08;;;;;;;;;;;;;;;4.43;77.00;98252.63;4893367;29;19942;-57
2023/02/01 09:36:47;;;;;;;;;;;;;;;3.91;76.77;98268.75;4889713;29;19950;-56
2023/02/01 09:39:17;;;;;;;;;;;;;;;3.63;76.90;98318.28;4922169;29;19942;-57
2023/02/01 09:41:49;;;;;;;;;;;;;;;3.50;77.54;98278.38;4893341;29;20242;-58
2023/02/01 09:44:42;;;;;;;;;;;;;;;3.48;77.57;98289.38;4930935;29;19981;-56
2023/02/01 09:48:00;;;;;;;;;;;;;;;3.57;77.05;98289.72;4911444;29;19943;-55
2023/02/01 09:51:16;;;;;;;;;;;;;;;3.62;76.47;98306.72;4918700;29;19953;-59
2023/02/01 09:53:48;;;;;;;;;;;;;;;3.67;76.84;98319.34;4900513;29;20048;-56
2023/02/01 09:56:19;;;;;;;;;;;;;;;3.82;75.88;98307.91;4915382;29;20276;-58
2023/02/01 09:58:50;;;;;;;;;;;;;;;3.96;75.69;98302.91;4916875;29;19977;-57
2023/02/01 10:01:19;;;;;;;;;;;;;;;4.08;74.64;98316.97;4914548;29;19965;-55
2023/02/01 10:04:12;;;;;;;;;;;;;;;4.06;75.34;98319.13;4914429;29;20000;-56
2023/02/01 10:06:43;;;;;;;;;;;;;;;4.13;74.82;98315.13;4918043;29;19973;-58
2023/02/01 10:09:21;;;;;;;;;;;;;;;4.16;75.05;98325.38;4916940;29;19937;-56
2023/02/01 10:11:55;;;;;;;;;;;;;;;4.15;74.53;98323.72;4908311;29;20323;-56
2023/02/01 10:14:45;;;;;;;;;;;;;;;4.19;74.89;98324.03;4920579;29;19943;-57
2023/02/01 10:17:16;;;;;;;;;;;;;;;4.18;75.12;98311.66;4918602;29;19934;-57
2023/02/01 10:19:45;;;;;;;;;;;;;;;4.18;75.15;98322.41;4901613;29;20232;-56
2023/02/01 10:22:16;;;;;;;;;;;;;;;4.17;75.58;98313.53;4916004;29;19985;-58
2023/02/01 10:24:47;;;;;;;;;;;;;;;4.19;76.01;98319.47;4920781;29;20479;-58
2023/02/01 10:27:41;;;;;;;;;;;;;;;4.22;76.87;98311.97;4918771;29;19941;-56
2023/02/01 10:30:16;;;;;;;;;;;;;;;4.29;76.39;98307.16;4913773;29;19964;-56
2023/02/01 10:32:44;;;;;;;;;;;;;;;4.26;77.29;98303.13;4912644;29;20312;-58
2023/02/01 10:35:15;;;;;;;;;;;;;;;4.33;77.21;98303.69;4916432;29;19948;-66
2023/02/01 10:37:44;;;;;;;;;;;;;;;4.42;76.58;98299.44;4914097;29;20346;-60
2023/02/01 10:40:16;;;;;;;;;;;;;;;4.46;76.37;98302.41;4925657;29;20038;-56
2023/02/01 10:42:45;;;;;;;;;;;;;;;4.60;75.44;98298.16;4912145;29;20898;-57
2023/02/01 10:45:14;;;;;;;;;;;;;;;4.78;74.68;98299.56;4899574;29;20004;-56
2023/02/01 10:47:43;;;;;;;;;;;;;;;4.82;73.96;98300.66;4901167;29;19938;-56
2023/02/01 10:50:18;;;;;;;;;;;;;;;4.71;73.71;98297.13;4892974;29;20427;-60
2023/02/01 10:52:48;;;;;;;;;;;;;;;4.69;73.90;98299.28;4898026;29;19942;-56
2023/02/01 10:55:43;;;;;;;;;;;;;;;4.70;73.85;98308.16;4908040;29;19997;-57
2023/02/01 10:58:17;;;;;;;;;;;;;;;4.75;74.49;98299.31;4854292;29;19949;-56
2023/02/01 11:00:47;;;;;;;;;;;;;;;4.67;74.65;98305.97;4910954;29;20301;-56
2023/02/01 11:03:23;;;;;;;;;;;;;;;4.52;75.85;98303.22;4915187;29;19942;-56
2023/02/01 11:05:51;;;;;;;;;;;;;;;4.35;76.15;98288.09;4895923;29;20330;-56
2023/02/01 11:08:21;;;;;;;;;;;;;;;4.23;76.77;98284.00;4895551;29;19961;-55
2023/02/01 11:10:49;;;;;;;;;;;;;;;4.10;77.93;98288.78;4895894;29;20008;-56
2023/02/01 11:13:19;;;;;;;;;;;;;;;4.09;78.28;98294.38;4901348;29;19946;-58
2023/02/01 11:15:48;;;;;;;;;;;;;;;4.09;78.09;98295.19;4894657;29;19946;-56
2023/02/01 11:18:17;;;;;;;;;;;;;;;4.04;79.01;98287.09;4909143;29;19942;-58
2023/02/01 11:21:10;;;;;;;;;;;;;;;4.07;79.03;98278.53;4897940;29;20439;-58
2023/02/01 11:23:43;;;;;;;;;;;;;;;4.17;78.31;98278.59;4901110;29;20026;-56
2023/02/01 11:26:12;;;;;;;;;;;;;;;4.25;77.87;98263.00;4895359;29;19931;-56
2023/02/01 11:28:44;;;;;;;;;;;;;;;4.24;78.30;98251.44;4904025;29;19932;-56
2023/02/01 11:31:13;;;;;;;;;;;;;;;4.37;76.80;98258.25;4892452;29;20331;-55
2023/02/01 11:33:45;;;;;;;;;;;;;;;4.49;74.89;98252.66;4898883;29;19935;-56
2023/02/01 11:36:14;;;;;;;;;;;;;;;4.60;72.94;98265.06;4888699;29;19928;-56
2023/02/01 11:38:46;;;;;;;;;;;;;;;4.68;73.40;98261.84;4895746;29;19927;-57
2023/02/01 11:41:15;;;;;;;;;;;;;;;4.68;73.11;98265.34;4895445;29;19983;-56
2023/02/01 11:43:56;;;;;;;;;;;;;;;4.68;72.42;98268.03;4899821;29;19931;-56
2023/02/01 11:46:27;;;;;;;;;;;;;;;4.67;72.79;98262.94;4883937;29;19954;-56
2023/02/01 11:48:56;;;;;;;;;;;;;;;4.65;72.30;98252.44;4887249;29;19942;-56
2023/02/01 11:51:45;;;;;;;;;;;;;;;4.62;73.11;98252.94;4892388;29;20281;-55
2023/02/01 11:54:21;;;;;;;;;;;;;;;4.60;73.01;98244.34;4891373;29;19954;-56
2023/02/01 11:56:55;;;;;;;;;;;;;;;4.65;73.39;98240.88;4902025;29;19931;-55
2023/02/01 12:02:34;;;;;;;;;;;;;;;4.72;73.67;98242.22;4893508;29;19962;-57
2023/02/01 12:05:14;;;;;;;;;;;;;;;4.71;72.94;98240.59;4899437;29;19937;-56
2023/02/01 12:07:47;;;;;;;;;;;;;;;4.67;73.81;98234.13;4913983;29;19937;-55
2023/02/01 12:10:19;;;;;;;;;;;;;;;4.70;72.97;98238.19;4894764;29;19938;-56
2023/02/01 12:12:49;;;;;;;;;;;;;;;4.76;72.89;98236.31;4895738;29;20323;-55
2023/02/01 12:15:29;;;;;;;;;;;;;;;4.83;73.16;98248.44;4911853;29;20411;-55
2023/02/01 12:21:22;;;;;;;;;;;;;;;4.92;70.80;98246.03;4881826;29;19968;-56
2023/02/01 12:23:57;;;;;;;;;;;;;;;4.88;71.36;98236.88;4895091;29;19945;-55
2023/02/01 12:26:37;;;;;;;;;;;;;;;4.91;71.62;98230.97;4899716;29;19938;-56
2023/02/01 12:29:13;;;;;;;;;;;;;;;4.88;71.87;98223.41;4891618;29;20024;-56
2023/02/01 12:31:49;;;;;;;;;;;;;;;4.87;71.61;98219.13;4894387;29;19961;-56
2023/02/01 12:34:40;;;;;;;;;;;;;;;4.86;71.13;98220.19;4906796;29;19945;-55
2023/02/01 12:37:10;;;;;;;;;;;;;;;4.82;71.31;98205.63;4905743;29;19983;-56
2023/02/01 12:39:40;;;;;;;;;;;;;;;4.85;71.11;98211.31;4886234;29;19942;-56
2023/02/01 12:42:10;;;;;;;;;;;;;;;4.83;71.77;98204.56;4891365;29;19935;-54
2023/02/01 12:44:41;;;;;;;;;;;;;;;4.94;70.91;98198.91;4915228;29;19957;-55
2023/02/01 12:47:13;;;;;;;;;;;;;;;4.94;70.94;98195.41;4912642;29;19946;-59
2023/02/01 12:50:07;;;;;;;;;;;;;;;4.95;71.53;98192.47;4919847;29;19976;-57
2023/02/01 12:53:07;;;;;;;;;;;;;;;5.00;70.09;98199.72;4917712;29;19964;-57
2023/02/01 12:55:37;;;;;;;;;;;;;;;4.95;70.16;98195.19;4912050;29;19945;-53
2023/02/01 12:58:08;;;;;;;;;;;;;;;4.95;70.46;98197.88;4918489;29;19968;-57
2023/02/01 13:00:37;;;;;;;;;;;;;;;4.98;69.92;98197.31;4912062;29;19938;-56
2023/02/01 13:03:11;;;;;;;;;;;;;;;5.11;69.28;98189.78;4911442;29;19945;-52
2023/02/01 13:05:44;;;;;;;;;;;;;;;5.15;69.39;98183.59;4912189;29;20004;-51
2023/02/01 13:08:12;;;;;;;;;;;;;;;5.16;68.78;98187.09;4917421;29;19946;-52
2023/02/01 13:10:42;;;;;;;;;;;;;;;5.17;68.39;98197.63;4906507;29;19942;-51
2023/02/01 13:13:11;;;;;;;;;;;;;;;5.12;68.90;98197.59;4909670;29;19961;-52
2023/02/01 13:15:41;;;;;;;;;;;;;;;5.07;69.03;98189.53;4909160;29;19938;-56
2023/02/01 13:18:13;;;;;;;;;;;;;;;5.06;68.59;98187.91;4931314;29;19938;-52
2023/02/01 13:20:43;;;;;;;;;;;;;;;4.99;69.01;98184.66;4914621;29;19937;-53
2023/02/01 13:23:14;;;;;;;;;;;;;;;4.89;69.84;98182.75;4913155;29;22029;-52
2023/02/01 13:25:44;;;;;;;;;;;;;;;4.88;70.45;98188.41;4911246;29;19942;-52
2023/02/01 13:28:13;;;;;;;;;;;;;;;4.91;71.00;98179.81;4919664;29;20402;-52
2023/02/01 13:34:10;;;;;;;;;;;;;;;4.88;71.35;98189.22;4911830;29;20192;-51
2023/02/01 13:36:46;;;;;;;;;;;;;;;4.93;70.82;98191.13;4888866;29;19927;-52
2023/02/01 13:39:25;;;;;;;;;;;;;;;4.92;70.52;98197.59;4912063;29;19948;-52
2023/02/01 13:41:54;;;;;;;;;;;;;;;5.03;70.14;98183.06;4906507;29;20294;-52
2023/02/01 13:44:29;;;;;;;;;;;;;;;5.02;70.58;98180.63;4913422;29;19935;-52
2023/02/01 13:46:57;;;;;;;;;;;;;;;5.08;69.31;98177.66;4928896;28;20462;-50
2023/02/01 13:49:52;;;;;;;;;;;;;;;5.07;69.32;98189.53;4913900;29;20314;-52
2023/02/01 13:52:33;;;;;;;;;;;;;;;5.11;68.80;98179.81;4911253;29;20435;-52
2023/02/01 13:55:02;;;;;;;;;;;;;;;5.01;68.66;98177.13;4910767;29;19937;-52
2023/02/01 13:57:35;;;;;;;;;;;;;;;4.93;69.72;98174.97;4915871;29;19941;-52
2023/02/01 14:00:09;;;;;;;;;;;;;;;4.99;68.34;98176.56;4920787;29;19965;-52
2023/02/01 14:02:47;;;;;;;;;;;;;;;5.02;69.58;98177.94;4912725;29;19987;-53
2023/02/01 14:05:42;;;;;;;;;;;;;;;5.02;69.63;98181.44;4914295;29;19945;-50
2023/02/01 14:08:13;;;;;;;;;;;;;;;4.99;70.11;98181.97;4910258;29;19997;-53
2023/02/01 14:10:47;;;;;;;;;;;;;;;5.12;69.34;98176.06;4912840;29;20469;-52
2023/02/01 14:13:23;;;;;;;;;;;;;;;5.03;69.38;98177.66;4919655;29;19972;-53
2023/02/01 14:16:14;;;;;;;;;;;;;;;5.06;69.50;98171.75;4913524;29;19941;-53
2023/02/01 14:18:50;;;;;;;;;;;;;;;5.14;69.33;98168.50;4899359;29;20013;-52
2023/02/01 14:21:19;;;;;;;;;;;;;;;5.14;69.18;98170.41;4911812;29;20405;-53
2023/02/01 14:23:57;;;;;;;;;;;;;;;5.23;68.70;98172.28;4927633;29;19945;-52